Aviation Digital Data Service (ADDS)

Output produced by METARs form (1413 UTC 05 September 2015)
found at http://aviationweather.gov/adds/metars/
 
KLGA 051150Z 0512/0612 06009KT P6SM FEW060 
     FM051600 05012KT P6SM SKC 
     FM052100 13010KT P6SM SKC 
     FM060000 13006KT P6SM SKC 
     FM060600 VRB04KT P6SM SKC